createdAt,value
2023-03-13T00:00:17.376Z,8.60
2023-03-13T00:05:41.836Z,8.70
2023-03-13T00:10:46.623Z,8.70
2023-03-13T00:15:50.162Z,8.70
2023-03-13T00:20:59.847Z,8.70
2023-03-13T00:26:06.846Z,8.80
2023-03-13T00:31:12.287Z,8.80
2023-03-13T00:36:18.031Z,8.80
2023-03-13T00:41:24.328Z,8.90
2023-03-13T00:46:29.835Z,8.80
2023-03-13T00:51:34.773Z,8.90
2023-03-13T00:56:40.202Z,8.90
2023-03-13T01:01:44.184Z,8.80
2023-03-13T01:06:47.585Z,8.90
2023-03-13T01:11:52.269Z,8.80
2023-03-13T01:16:55.717Z,8.90
2023-03-13T01:21:59.089Z,8.90
2023-03-13T01:27:04.173Z,8.90
2023-03-13T01:32:08.124Z,8.90
2023-03-13T01:37:11.782Z,9.00
2023-03-13T01:42:16.485Z,9.00
2023-03-13T01:47:20.060Z,9.10
2023-03-13T01:52:27.349Z,9.10
2023-03-13T01:57:35.032Z,9.10
2023-03-13T02:02:41.957Z,9.10
2023-03-13T02:07:49.509Z,9.10
2023-03-13T02:12:55.236Z,9.20
2023-03-13T02:18:00.206Z,9.20
2023-03-13T02:23:14.039Z,9.20
2023-03-13T02:28:22.070Z,9.30
2023-03-13T02:33:30.126Z,9.40
2023-03-13T02:38:37.654Z,9.40
2023-03-13T02:43:42.884Z,9.50
2023-03-13T02:48:48.973Z,9.50
2023-03-13T02:53:55.164Z,9.50
2023-03-13T02:58:59.878Z,9.50
2023-03-13T03:04:03.490Z,9.50
2023-03-13T03:09:08.497Z,9.50
2023-03-13T03:14:13.898Z,9.50
2023-03-13T03:19:17.347Z,9.50
2023-03-13T03:24:20.826Z,9.50
2023-03-13T03:29:25.716Z,9.50
2023-03-13T03:34:29.101Z,9.50
2023-03-13T03:39:32.501Z,9.50
2023-03-13T03:44:37.501Z,9.50
2023-03-13T03:49:41.240Z,9.50
2023-03-13T03:54:44.617Z,9.50
2023-03-13T03:59:49.398Z,9.50
2023-03-13T04:04:53.084Z,9.50
2023-03-13T04:09:56.605Z,9.50
2023-03-13T04:15:01.592Z,9.40
2023-03-13T04:20:06.628Z,9.40
2023-03-13T04:25:11.085Z,9.40
2023-03-13T04:30:18.578Z,9.40
2023-03-13T04:35:22.236Z,9.40
2023-03-13T04:40:25.597Z,9.50
2023-03-13T04:45:30.316Z,9.50
2023-03-13T04:50:33.756Z,9.50
2023-03-13T04:55:37.097Z,9.50
2023-03-13T05:00:42.803Z,9.50
2023-03-13T05:05:46.749Z,9.50
2023-03-13T05:10:50.412Z,9.60
2023-03-13T05:15:55.656Z,9.60
2023-03-13T05:20:59.082Z,9.60
2023-03-13T05:26:02.500Z,9.70
2023-03-13T05:31:07.323Z,9.70
2023-03-13T05:36:10.999Z,9.60
2023-03-13T05:41:14.794Z,9.60
2023-03-13T05:46:19.771Z,9.60
2023-03-13T05:51:23.219Z,9.60
2023-03-13T05:56:26.694Z,9.60
2023-03-13T06:01:31.633Z,9.60
2023-03-13T06:06:35.293Z,9.60
2023-03-13T06:11:38.996Z,9.60
2023-03-13T06:16:43.799Z,9.70
2023-03-13T06:21:47.592Z,9.70
2023-03-13T06:26:51.686Z,9.70
2023-03-13T06:31:56.507Z,9.70
2023-03-13T06:37:00.593Z,9.70
2023-03-13T06:42:03.995Z,9.80
2023-03-13T06:47:09.193Z,9.80
2023-03-13T06:52:12.605Z,9.80
2023-03-13T06:57:16.031Z,9.90
2023-03-13T07:02:20.773Z,9.90
2023-03-13T07:07:31.836Z,10.00
2023-03-13T07:12:36.083Z,10.00
2023-03-13T07:17:40.963Z,10.10
2023-03-13T07:22:44.491Z,10.20
2023-03-13T07:27:51.844Z,10.20
2023-03-13T07:32:56.720Z,10.30
2023-03-13T07:38:00.164Z,10.30
2023-03-13T07:43:04.423Z,10.40
2023-03-13T07:48:09.270Z,10.50
2023-03-13T07:53:15.389Z,10.60
2023-03-13T07:58:19.875Z,10.60
2023-03-13T08:03:25.669Z,10.70
2023-03-13T08:08:30.507Z,10.80
2023-03-13T08:13:35.275Z,10.90
2023-03-13T08:18:42.084Z,11.00
2023-03-13T08:23:45.819Z,11.10
2023-03-13T08:28:54.103Z,11.10
2023-03-13T08:33:59.342Z,11.20
2023-03-13T08:39:05.163Z,11.30
2023-03-13T08:44:11.430Z,11.30
2023-03-13T08:49:17.681Z,11.40
2023-03-13T08:54:21.181Z,11.50
2023-03-13T08:59:24.701Z,11.50
2023-03-13T09:04:29.500Z,11.60
2023-03-13T09:09:33.194Z,11.70
2023-03-13T09:14:37.017Z,11.70
2023-03-13T09:19:57.648Z,11.70
2023-03-13T09:25:03.241Z,11.70
2023-03-13T09:30:07.875Z,11.80
2023-03-13T09:35:12.683Z,11.80
2023-03-13T09:40:18.256Z,11.90
2023-03-13T09:45:31.309Z,11.80
2023-03-13T09:50:38.677Z,11.90
2023-03-13T09:55:45.147Z,12.00
2023-03-13T10:00:52.749Z,12.00
2023-03-13T10:06:02.205Z,12.00
2023-03-13T10:11:12.392Z,12.10
2023-03-13T10:16:23.338Z,12.10
2023-03-13T10:21:35.352Z,12.20
2023-03-13T10:26:39.182Z,12.20
2023-03-13T10:31:44.538Z,12.30
2023-03-13T10:36:51.229Z,12.30
2023-03-13T10:42:00.934Z,12.30
2023-03-13T10:47:05.170Z,12.40
2023-03-13T10:52:33.562Z,12.40
2023-03-13T10:57:38.266Z,12.40
2023-03-13T11:02:41.800Z,12.40
2023-03-13T11:07:48.097Z,12.40
2023-03-13T11:12:52.722Z,12.40
2023-03-13T11:18:02.410Z,12.40
2023-03-13T11:23:22.093Z,12.40
2023-03-13T11:28:37.468Z,12.40
2023-03-13T11:33:53.127Z,12.50
2023-03-13T11:39:12.524Z,12.50
2023-03-13T11:44:28.690Z,12.50
2023-03-13T11:49:46.700Z,12.50
2023-03-13T11:55:04.321Z,12.50
2023-03-13T12:00:23.962Z,12.60
2023-03-13T12:05:31.033Z,12.60
2023-03-13T12:10:42.345Z,12.70
2023-03-13T12:15:49.948Z,12.80
2023-03-13T12:20:59.462Z,12.80
2023-03-13T12:26:10.013Z,12.90
2023-03-13T12:31:22.679Z,13.00
2023-03-13T12:36:34.951Z,13.10
2023-03-13T12:41:43.982Z,13.10
2023-03-13T12:46:49.497Z,13.20
2023-03-13T12:52:09.643Z,13.30
2023-03-13T12:57:46.149Z,13.30
2023-03-13T13:03:02.685Z,13.40
2023-03-13T13:08:06.526Z,13.40
2023-03-13T13:13:30.343Z,13.50
2023-03-13T13:18:34.871Z,13.50
2023-03-13T13:23:39.442Z,13.60
2023-03-13T13:28:45.530Z,13.60
2023-03-13T13:33:48.926Z,13.60
2023-03-13T13:38:53.020Z,13.60
2023-03-13T13:44:29.593Z,13.70
2023-03-13T13:49:54.835Z,13.70
2023-03-13T13:54:59.465Z,13.80
2023-03-13T14:00:19.749Z,13.80
2023-03-13T14:05:26.976Z,13.90
2023-03-13T14:10:41.887Z,13.90
2023-03-13T14:15:47.916Z,13.90
2023-03-13T14:21:02.665Z,14.00
2023-03-13T14:26:16.332Z,14.00
2023-03-13T14:31:26.927Z,14.00
2023-03-13T14:36:31.143Z,14.10
2023-03-13T14:41:39.351Z,14.10
2023-03-13T14:46:45.446Z,14.20
2023-03-13T14:51:59.311Z,14.20
2023-03-13T14:57:21.376Z,14.30
2023-03-13T15:02:29.710Z,14.30
2023-03-13T15:07:38.848Z,14.30
2023-03-13T15:12:44.869Z,14.20
2023-03-13T15:17:50.045Z,14.20
2023-03-13T15:22:53.684Z,14.30
2023-03-13T15:27:57.599Z,14.40
2023-03-13T15:33:02.746Z,14.40
2023-03-13T15:38:12.331Z,14.40
2023-03-13T15:43:17.031Z,14.40
2023-03-13T15:48:25.635Z,14.40
2023-03-13T15:53:31.252Z,14.40
2023-03-13T15:58:34.697Z,14.40
2023-03-13T16:03:39.839Z,14.30
2023-03-13T16:08:43.543Z,14.40
2023-03-13T16:13:47.001Z,14.40
2023-03-13T16:18:53.334Z,14.40
2023-03-13T16:23:57.425Z,14.50
2023-03-13T16:29:00.877Z,14.50
2023-03-13T16:34:05.916Z,14.50
2023-03-13T16:39:15.030Z,14.40
2023-03-13T16:44:18.683Z,14.30
2023-03-13T16:49:23.446Z,14.30
2023-03-13T16:54:26.900Z,14.30
2023-03-13T16:59:30.813Z,14.30
2023-03-13T17:04:35.725Z,14.30
2023-03-13T17:09:39.449Z,14.20
2023-03-13T17:14:42.861Z,14.20
2023-03-13T17:19:48.290Z,14.30
2023-03-13T17:24:52.828Z,14.30
2023-03-13T17:29:56.495Z,14.30
2023-03-13T17:35:01.595Z,14.30
2023-03-13T17:40:17.097Z,14.30
2023-03-13T17:45:20.868Z,14.40
2023-03-13T17:50:27.753Z,14.40
2023-03-13T17:55:31.239Z,14.30
2023-03-13T18:00:35.036Z,14.30
2023-03-13T18:05:42.455Z,14.20
2023-03-13T18:10:46.581Z,14.20
2023-03-13T18:15:50.474Z,14.20
2023-03-13T18:20:56.070Z,14.10
2023-03-13T18:26:00.044Z,14.00
2023-03-13T18:31:03.946Z,14.00
2023-03-13T18:36:18.804Z,13.90
2023-03-13T18:41:22.748Z,13.90
2023-03-13T18:46:30.587Z,13.90
2023-03-13T18:51:35.505Z,13.90
2023-03-13T18:56:39.223Z,13.90
2023-03-13T19:01:43.078Z,13.90
2023-03-13T19:06:48.807Z,13.90
2023-03-13T19:11:52.406Z,14.00
2023-03-13T19:16:57.786Z,14.00
2023-03-13T19:22:02.912Z,14.00
2023-03-13T19:27:07.286Z,14.00
2023-03-13T19:32:15.154Z,14.00
2023-03-13T19:37:20.378Z,14.00
2023-03-13T19:42:24.296Z,14.00
2023-03-13T19:47:27.925Z,14.00
2023-03-13T19:52:33.233Z,14.00
2023-03-13T19:57:37.204Z,13.90
2023-03-13T20:02:40.802Z,13.90
2023-03-13T20:07:46.941Z,13.70
2023-03-13T20:12:50.564Z,13.50
2023-03-13T20:17:54.484Z,13.50
2023-03-13T20:23:01.588Z,13.40
2023-03-13T20:28:05.589Z,13.30
2023-03-13T20:33:20.855Z,13.30
2023-03-13T20:38:26.414Z,13.30
2023-03-13T20:43:30.633Z,13.30
2023-03-13T20:48:37.158Z,13.20
2023-03-13T20:53:49.056Z,13.20
2023-03-13T20:58:57.649Z,13.20
2023-03-13T21:04:01.380Z,13.20
2023-03-13T21:09:08.694Z,13.20
2023-03-13T21:14:12.376Z,13.10
2023-03-13T21:19:16.230Z,13.00
2023-03-13T21:24:22.388Z,13.00
2023-03-13T21:29:26.080Z,12.90
2023-03-13T21:34:29.568Z,12.90
2023-03-13T21:39:34.776Z,12.90
2023-03-13T21:44:38.223Z,12.90
2023-03-13T21:49:41.660Z,13.00
2023-03-13T21:54:46.984Z,12.90
2023-03-13T21:59:50.468Z,12.80
2023-03-13T22:04:53.928Z,12.80
2023-03-13T22:09:58.812Z,12.80
2023-03-13T22:15:02.395Z,12.80
2023-03-13T22:20:07.536Z,12.80
2023-03-13T22:25:12.452Z,12.80
2023-03-13T22:30:16.329Z,12.80
2023-03-13T22:35:20.052Z,12.80
2023-03-13T22:40:24.938Z,12.80
2023-03-13T22:45:28.388Z,12.80
2023-03-13T22:50:31.743Z,12.90
2023-03-13T22:55:36.902Z,12.90
2023-03-13T23:00:40.316Z,12.90
2023-03-13T23:05:45.165Z,12.90
2023-03-13T23:10:50.420Z,12.90
2023-03-13T23:15:56.208Z,12.90
2023-03-13T23:20:59.857Z,12.80
2023-03-13T23:26:06.690Z,12.80
2023-03-13T23:31:11.764Z,12.70
2023-03-13T23:36:17.018Z,12.70
2023-03-13T23:41:22.532Z,12.80
2023-03-13T23:46:26.982Z,12.90
2023-03-13T23:51:30.319Z,13.00
2023-03-13T23:56:35.307Z,13.00
